No.3tokuyomaru — JD3132 — position and weather

sailwx.info

Track history (hours):
 
Tides and Currents Weather Stations Pressure Air Temp Water Temp Dewpoint Dewpoint Depression Visibility Wind Speed Wind Dir Waves Ship Positions

No.3tokuyomaru

Last reported at 2018-Feb-22 00:14 UTC. Time now 2018-Feb-22 03:14 UTC.
Position N 34°57' E 136°38'.

Length 67 m; draft 4.1 m.

Type: Tanker. MMSI: 431002151.

Date/timePositionNaut miles runAvg speedWind from/ knotsBaromVisibWave heightAir tempDewpointWater temp
2018-Feb-22 00:14N 34°57' E 136°38'0 0.0
2018-Feb-21 23:44N 34°57' E 136°38'0 0.0
2018-Feb-21 23:30N 34°57' E 136°38'1 2.1
2018-Feb-21 23:00N 34°57' E 136°39'0 0.0
2018-Feb-21 22:30N 34°57' E 136°39'0 0.1
2018-Feb-21 21:54N 34°57' E 136°39'0 0.0
2018-Feb-21 21:30N 34°57' E 136°39'0 0.8
2018-Feb-21 21:01N 34°58' E 136°39'510.0
2018-Feb-21 20:31N 34°54' E 136°43'612.7
2018-Feb-21 20:00N 34°48' E 136°46'712.3
2018-Feb-21 19:26N 34°42' E 136°51'102 8.3
2018-Feb-21 07:06N 33°51' E 135°03'213.6
2018-Feb-21 06:56N 33°53' E 135°01'613.1
2018-Feb-21 06:30N 33°57' E 134°57'912.9
2018-Feb-21 05:49N 34°04' E 134°50'413.4
2018-Feb-21 05:30N 34°07' E 134°46'813.7
2018-Feb-21 04:56N 34°13' E 134°40'614.4
2018-Feb-21 04:31N 34°19' E 134°38'713.3
2018-Feb-21 04:00N 34°25' E 134°38'713.1
2018-Feb-21 03:30N 34°32' E 134°38'712.9
2018-Feb-21 02:58N 34°39' E 134°38'612.4
2018-Feb-21 02:30N 34°45' E 134°37'1 0.1
2018-Feb-20 14:28N 34°45' E 134°36'612.6
2018-Feb-20 14:00N 34°42' E 134°42'713.5
2018-Feb-20 13:30N 34°39' E 134°49'713.9
2018-Feb-20 13:00N 34°38' E 134°57'714.0
2018-Feb-20 12:30N 34°35' E 135°05'612.9
2018-Feb-20 12:00N 34°34' E 135°13'612.6
2018-Feb-20 11:30N 34°34' E 135°21'5 8.7
2018-Feb-20 10:59N 34°33' E 135°26'0 0.0
2018-Feb-20 10:26N 34°33' E 135°26'0 0.0
2018-Feb-20 09:59N 34°33' E 135°26'0 0.0
2018-Feb-20 09:29N 34°33' E 135°26'0 0.0
2018-Feb-20 08:59N 34°33' E 135°26'0 0.0
2018-Feb-20 08:29N 34°33' E 135°26'0 0.0
2018-Feb-20 07:59N 34°33' E 135°26'0 0.0
2018-Feb-20 07:29N 34°33' E 135°26'0 0.0
2018-Feb-20 06:59N 34°33' E 135°26'0 0.1
2018-Feb-20 06:30N 34°33' E 135°26'5 9.6
2018-Feb-20 06:00N 34°33' E 135°20'713.3
2018-Feb-20 05:30N 34°34' E 135°12'713.1
2018-Feb-20 05:00N 34°35' E 135°05'612.2
2018-Feb-20 04:30N 34°36' E 134°57'612.5
2018-Feb-20 04:00N 34°39' E 134°50'612.7
2018-Feb-20 03:30N 34°42' E 134°44'612.5
2018-Feb-20 03:00N 34°45' E 134°37'2 0.5
2018-Feb-19 23:36N 34°46' E 134°35'0 0.0
2018-Feb-19 23:29N 34°46' E 134°35'5 0.6
2018-Feb-19 14:20N 34°43' E 134°41'513.1
2018-Feb-19 13:59N 34°41' E 134°46'713.8
2018-Feb-19 13:30N 34°38' E 134°53'714.7
2018-Feb-19 13:00N 34°37' E 135°02'713.0
2018-Feb-19 12:30N 34°35' E 135°09'612.8
2018-Feb-19 12:00N 34°34' E 135°17'612.5
2018-Feb-19 11:30N 34°33' E 135°24'2 3.2
2018-Feb-19 11:00N 34°33' E 135°26'0 0.0
2018-Feb-19 10:30N 34°33' E 135°26'0 0.0
2018-Feb-19 10:00N 34°33' E 135°26'0 0.0
2018-Feb-19 09:30N 34°33' E 135°26'0 0.0
2018-Feb-19 09:00N 34°33' E 135°26'0 0.0
2018-Feb-19 08:24N 34°33' E 135°26'0 0.0
2018-Feb-19 07:57N 34°33' E 135°26'0 0.0
2018-Feb-19 07:24N 34°33' E 135°26'0 0.0
2018-Feb-19 07:00N 34°33' E 135°26'1 2.3
2018-Feb-19 06:30N 34°33' E 135°25'612.9
2018-Feb-19 06:00N 34°34' E 135°17'713.2
2018-Feb-19 05:30N 34°34' E 135°09'713.2
2018-Feb-19 05:00N 34°37' E 135°02'713.1
2018-Feb-19 04:30N 34°37' E 134°54'713.4
2018-Feb-19 04:00N 34°41' E 134°47'812.3
2018-Feb-19 03:22N 34°44' E 134°38'3 0.7
2018-Feb-18 23:29N 34°46' E 134°35'1 0.3
2018-Feb-18 21:00N 34°45' E 134°36'0 0.0
2018-Feb-18 12:30N 34°45' E 134°36'0 0.0
2018-Feb-18 09:37N 34°45' E 134°36'211.3
2018-Feb-18 09:26N 34°44' E 134°34'713.0
2018-Feb-18 08:54N 34°41' E 134°26'1613.3
2018-Feb-18 07:41N 34°33' E 134°09'25 0.9
2018-Feb-17 02:48N 34°45' E 134°35'0 0.0
2018-Feb-16 23:57N 34°45' E 134°35'4 7.8
2018-Feb-16 23:28N 34°42' E 134°37'612.4
2018-Feb-16 22:59N 34°36' E 134°38'612.0
2018-Feb-16 22:30N 34°30' E 134°38'611.9
2018-Feb-16 22:00N 34°24' E 134°38'611.8
2018-Feb-16 21:30N 34°18' E 134°38'711.5
2018-Feb-16 20:55N 34°12' E 134°42'512.2
2018-Feb-16 20:30N 34°08' E 134°45'612.4
2018-Feb-16 19:59N 34°03' E 134°51'612.5
2018-Feb-16 19:30N 33°59' E 134°55'612.6
2018-Feb-16 19:01N 33°54' E 135°00'102 8.1
2018-Feb-16 06:27N 34°42' E 136°49'612.7
2018-Feb-16 06:00N 34°47' E 136°46'612.5
2018-Feb-16 05:30N 34°53' E 136°43'510.6
2018-Feb-16 05:00N 34°57' E 136°39'1 1.3
2018-Feb-16 04:29N 34°57' E 136°38'0 0.0
2018-Feb-16 03:59N 34°57' E 136°38'0 0.0
2018-Feb-16 03:29N 34°57' E 136°38'0 0.0
2018-Feb-16 02:59N 34°57' E 136°38'0 0.0
2018-Feb-16 02:29N 34°57' E 136°38'0 0.0
2018-Feb-16 01:59N 34°57' E 136°38'0 0.0
2018-Feb-16 01:29N 34°57' E 136°38'0 0.0
2018-Feb-16 00:53N 34°57' E 136°38'0 1.2
2018-Feb-16 00:30N 34°57' E 136°39'1 1.2
2018-Feb-16 00:00N 34°57' E 136°39'0 0.0
2018-Feb-15 23:18N 34°57' E 136°39'0 0.1
2018-Feb-15 22:54N 34°57' E 136°39'0 0.1
2018-Feb-15 22:27N 34°57' E 136°39'0 0.0
2018-Feb-15 22:00N 34°57' E 136°39'0 0.0
2018-Feb-15 21:29N 34°57' E 136°39'4 8.9
2018-Feb-15 21:01N 34°54' E 136°42'612.9
2018-Feb-15 20:30N 34°48' E 136°46'712.8
2018-Feb-15 20:00N 34°43' E 136°50'103 8.1
2018-Feb-15 07:19N 33°52' E 135°02'613.0
2018-Feb-15 06:49N 33°57' E 134°57'412.9
2018-Feb-15 06:29N 34°00' E 134°53'613.0
2018-Feb-15 06:00N 34°05' E 134°48'1013.8
2018-Feb-15 05:15N 34°13' E 134°40'514.3
2018-Feb-15 04:54N 34°17' E 134°37'513.2
2018-Feb-15 04:30N 34°22' E 134°38'612.8
2018-Feb-15 04:00N 34°29' E 134°38'612.8
2018-Feb-15 03:30N 34°35' E 134°38'612.7
2018-Feb-15 03:00N 34°42' E 134°37'5 1.3
2018-Feb-14 23:28N 34°46' E 134°35'1 0.1
2018-Feb-14 13:56N 34°45' E 134°36'410.2
2018-Feb-14 13:30N 34°43' E 134°40'612.4
2018-Feb-14 13:00N 34°40' E 134°47'612.8
2018-Feb-14 12:30N 34°37' E 134°54'613.0
2018-Feb-14 12:01N 34°37' E 135°02'612.8
2018-Feb-14 11:30N 34°35' E 135°09'613.0
2018-Feb-14 11:00N 34°34' E 135°17'612.4
2018-Feb-14 10:30N 34°33' E 135°24'2 3.2
2018-Feb-14 10:00N 34°33' E 135°26'0 0.0
2018-Feb-14 09:30N 34°33' E 135°26'0 0.0
2018-Feb-14 08:57N 34°33' E 135°26'0 0.0
2018-Feb-14 08:30N 34°33' E 135°26'0 0.0
2018-Feb-14 08:00N 34°33' E 135°26'0 0.0
2018-Feb-14 07:30N 34°33' E 135°26'0 0.0
2018-Feb-14 07:00N 34°33' E 135°26'0 0.0
2018-Feb-14 06:30N 34°33' E 135°26'0 0.0
2018-Feb-14 06:00N 34°33' E 135°26'0 0.0
2018-Feb-14 05:30N 34°33' E 135°26'4 8.5
2018-Feb-14 05:00N 34°33' E 135°21'713.4
2018-Feb-14 04:30N 34°34' E 135°13'713.6
2018-Feb-14 04:01N 34°35' E 135°05'714.1
2018-Feb-14 03:31N 34°36' E 134°57'714.7
2018-Feb-14 03:00N 34°40' E 134°49'713.6
2018-Feb-14 02:30N 34°43' E 134°41'611.7
2018-Feb-14 02:00N 34°46' E 134°35'0 0.0
2018-Feb-13 23:25N 34°46' E 134°35'1 0.1
2018-Feb-13 09:26N 34°45' E 134°35'512.0
2018-Feb-13 09:00N 34°42' E 134°30'2012.9
2018-Feb-13 07:27N 34°33' E 134°09'  
Track history (hours):
 
Tides and Currents Weather Stations Pressure Air Temp Water Temp Dewpoint Dewpoint Depression Visibility Wind Speed Wind Dir Waves Ship Positions

No.3tokuyomaru

Last reported at 2018-Feb-22 00:14 UTC. Time now 2018-Feb-22 03:14 UTC.
Position N 34°57' E 136°38'.

Length 67 m; draft 4.1 m.

Type: Tanker. MMSI: 431002151.

Date/timePositionNaut miles runAvg speedWind from/ knotsBaromVisibWave heightAir tempDewpointWater temp
2018-Feb-22 00:14N 34°57' E 136°38'0 0.0
2018-Feb-21 23:44N 34°57' E 136°38'0 0.0
2018-Feb-21 23:30N 34°57' E 136°38'1 2.1
2018-Feb-21 23:00N 34°57' E 136°39'0 0.0
2018-Feb-21 22:30N 34°57' E 136°39'0 0.1
2018-Feb-21 21:54N 34°57' E 136°39'0 0.0
2018-Feb-21 21:30N 34°57' E 136°39'0 0.8
2018-Feb-21 21:01N 34°58' E 136°39'510.0
2018-Feb-21 20:31N 34°54' E 136°43'612.7
2018-Feb-21 20:00N 34°48' E 136°46'712.3
2018-Feb-21 19:26N 34°42' E 136°51'102 8.3
2018-Feb-21 07:06N 33°51' E 135°03'213.6
2018-Feb-21 06:56N 33°53' E 135°01'613.1
2018-Feb-21 06:30N 33°57' E 134°57'912.9
2018-Feb-21 05:49N 34°04' E 134°50'413.4
2018-Feb-21 05:30N 34°07' E 134°46'813.7
2018-Feb-21 04:56N 34°13' E 134°40'614.4
2018-Feb-21 04:31N 34°19' E 134°38'713.3
2018-Feb-21 04:00N 34°25' E 134°38'713.1
2018-Feb-21 03:30N 34°32' E 134°38'712.9
2018-Feb-21 02:58N 34°39' E 134°38'612.4
2018-Feb-21 02:30N 34°45' E 134°37'1 0.1
2018-Feb-20 14:28N 34°45' E 134°36'612.6
2018-Feb-20 14:00N 34°42' E 134°42'713.5
2018-Feb-20 13:30N 34°39' E 134°49'713.9
2018-Feb-20 13:00N 34°38' E 134°57'714.0
2018-Feb-20 12:30N 34°35' E 135°05'612.9
2018-Feb-20 12:00N 34°34' E 135°13'612.6
2018-Feb-20 11:30N 34°34' E 135°21'5 8.7
2018-Feb-20 10:59N 34°33' E 135°26'0 0.0
2018-Feb-20 10:26N 34°33' E 135°26'0 0.0
2018-Feb-20 09:59N 34°33' E 135°26'0 0.0
2018-Feb-20 09:29N 34°33' E 135°26'0 0.0
2018-Feb-20 08:59N 34°33' E 135°26'0 0.0
2018-Feb-20 08:29N 34°33' E 135°26'0 0.0
2018-Feb-20 07:59N 34°33' E 135°26'0 0.0
2018-Feb-20 07:29N 34°33' E 135°26'0 0.0
2018-Feb-20 06:59N 34°33' E 135°26'0 0.1
2018-Feb-20 06:30N 34°33' E 135°26'5 9.6
2018-Feb-20 06:00N 34°33' E 135°20'713.3
2018-Feb-20 05:30N 34°34' E 135°12'713.1
2018-Feb-20 05:00N 34°35' E 135°05'612.2
2018-Feb-20 04:30N 34°36' E 134°57'612.5
2018-Feb-20 04:00N 34°39' E 134°50'612.7
2018-Feb-20 03:30N 34°42' E 134°44'612.5
2018-Feb-20 03:00N 34°45' E 134°37'2 0.5
2018-Feb-19 23:36N 34°46' E 134°35'0 0.0
2018-Feb-19 23:29N 34°46' E 134°35'5 0.6
2018-Feb-19 14:20N 34°43' E 134°41'513.1
2018-Feb-19 13:59N 34°41' E 134°46'713.8
2018-Feb-19 13:30N 34°38' E 134°53'714.7
2018-Feb-19 13:00N 34°37' E 135°02'713.0
2018-Feb-19 12:30N 34°35' E 135°09'612.8
2018-Feb-19 12:00N 34°34' E 135°17'612.5
2018-Feb-19 11:30N 34°33' E 135°24'2 3.2
2018-Feb-19 11:00N 34°33' E 135°26'0 0.0
2018-Feb-19 10:30N 34°33' E 135°26'0 0.0
2018-Feb-19 10:00N 34°33' E 135°26'0 0.0
2018-Feb-19 09:30N 34°33' E 135°26'0 0.0
2018-Feb-19 09:00N 34°33' E 135°26'0 0.0
2018-Feb-19 08:24N 34°33' E 135°26'0 0.0
2018-Feb-19 07:57N 34°33' E 135°26'0 0.0
2018-Feb-19 07:24N 34°33' E 135°26'0 0.0
2018-Feb-19 07:00N 34°33' E 135°26'1 2.3
2018-Feb-19 06:30N 34°33' E 135°25'612.9
2018-Feb-19 06:00N 34°34' E 135°17'713.2
2018-Feb-19 05:30N 34°34' E 135°09'713.2
2018-Feb-19 05:00N 34°37' E 135°02'713.1
2018-Feb-19 04:30N 34°37' E 134°54'713.4
2018-Feb-19 04:00N 34°41' E 134°47'812.3
2018-Feb-19 03:22N 34°44' E 134°38'3 0.7
2018-Feb-18 23:29N 34°46' E 134°35'1 0.3
2018-Feb-18 21:00N 34°45' E 134°36'0 0.0
2018-Feb-18 12:30N 34°45' E 134°36'0 0.0
2018-Feb-18 09:37N 34°45' E 134°36'211.3
2018-Feb-18 09:26N 34°44' E 134°34'713.0
2018-Feb-18 08:54N 34°41' E 134°26'1613.3
2018-Feb-18 07:41N 34°33' E 134°09'25 0.9
2018-Feb-17 02:48N 34°45' E 134°35'0 0.0
2018-Feb-16 23:57N 34°45' E 134°35'4 7.8
2018-Feb-16 23:28N 34°42' E 134°37'612.4
2018-Feb-16 22:59N 34°36' E 134°38'612.0
2018-Feb-16 22:30N 34°30' E 134°38'611.9
2018-Feb-16 22:00N 34°24' E 134°38'611.8
2018-Feb-16 21:30N 34°18' E 134°38'711.5
2018-Feb-16 20:55N 34°12' E 134°42'512.2
2018-Feb-16 20:30N 34°08' E 134°45'612.4
2018-Feb-16 19:59N 34°03' E 134°51'612.5
2018-Feb-16 19:30N 33°59' E 134°55'612.6
2018-Feb-16 19:01N 33°54' E 135°00'102 8.1
2018-Feb-16 06:27N 34°42' E 136°49'612.7
2018-Feb-16 06:00N 34°47' E 136°46'612.5
2018-Feb-16 05:30N 34°53' E 136°43'510.6
2018-Feb-16 05:00N 34°57' E 136°39'1 1.3
2018-Feb-16 04:29N 34°57' E 136°38'0 0.0
2018-Feb-16 03:59N 34°57' E 136°38'0 0.0
2018-Feb-16 03:29N 34°57' E 136°38'0 0.0
2018-Feb-16 02:59N 34°57' E 136°38'0 0.0
2018-Feb-16 02:29N 34°57' E 136°38'0 0.0
2018-Feb-16 01:59N 34°57' E 136°38'0 0.0
2018-Feb-16 01:29N 34°57' E 136°38'0 0.0
2018-Feb-16 00:53N 34°57' E 136°38'0 1.2
2018-Feb-16 00:30N 34°57' E 136°39'1 1.2
2018-Feb-16 00:00N 34°57' E 136°39'0 0.0
2018-Feb-15 23:18N 34°57' E 136°39'0 0.1
2018-Feb-15 22:54N 34°57' E 136°39'0 0.1
2018-Feb-15 22:27N 34°57' E 136°39'0 0.0
2018-Feb-15 22:00N 34°57' E 136°39'0 0.0
2018-Feb-15 21:29N 34°57' E 136°39'4 8.9
2018-Feb-15 21:01N 34°54' E 136°42'612.9
2018-Feb-15 20:30N 34°48' E 136°46'712.8
2018-Feb-15 20:00N 34°43' E 136°50'103 8.1
2018-Feb-15 07:19N 33°52' E 135°02'613.0
2018-Feb-15 06:49N 33°57' E 134°57'412.9
2018-Feb-15 06:29N 34°00' E 134°53'613.0
2018-Feb-15 06:00N 34°05' E 134°48'1013.8
2018-Feb-15 05:15N 34°13' E 134°40'514.3
2018-Feb-15 04:54N 34°17' E 134°37'513.2
2018-Feb-15 04:30N 34°22' E 134°38'612.8
2018-Feb-15 04:00N 34°29' E 134°38'612.8
2018-Feb-15 03:30N 34°35' E 134°38'612.7
2018-Feb-15 03:00N 34°42' E 134°37'5 1.3
2018-Feb-14 23:28N 34°46' E 134°35'1 0.1
2018-Feb-14 13:56N 34°45' E 134°36'410.2
2018-Feb-14 13:30N 34°43' E 134°40'612.4
2018-Feb-14 13:00N 34°40' E 134°47'612.8
2018-Feb-14 12:30N 34°37' E 134°54'613.0
2018-Feb-14 12:01N 34°37' E 135°02'612.8
2018-Feb-14 11:30N 34°35' E 135°09'613.0
2018-Feb-14 11:00N 34°34' E 135°17'612.4
2018-Feb-14 10:30N 34°33' E 135°24'2 3.2
2018-Feb-14 10:00N 34°33' E 135°26'0 0.0
2018-Feb-14 09:30N 34°33' E 135°26'0 0.0
2018-Feb-14 08:57N 34°33' E 135°26'0 0.0
2018-Feb-14 08:30N 34°33' E 135°26'0 0.0
2018-Feb-14 08:00N 34°33' E 135°26'0 0.0
2018-Feb-14 07:30N 34°33' E 135°26'0 0.0
2018-Feb-14 07:00N 34°33' E 135°26'0 0.0
2018-Feb-14 06:30N 34°33' E 135°26'0 0.0
2018-Feb-14 06:00N 34°33' E 135°26'0 0.0
2018-Feb-14 05:30N 34°33' E 135°26'4 8.5
2018-Feb-14 05:00N 34°33' E 135°21'713.4
2018-Feb-14 04:30N 34°34' E 135°13'713.6
2018-Feb-14 04:01N 34°35' E 135°05'714.1
2018-Feb-14 03:31N 34°36' E 134°57'714.7
2018-Feb-14 03:00N 34°40' E 134°49'713.6
2018-Feb-14 02:30N 34°43' E 134°41'611.7
2018-Feb-14 02:00N 34°46' E 134°35'0 0.0
2018-Feb-13 23:25N 34°46' E 134°35'1 0.1
2018-Feb-13 09:26N 34°45' E 134°35'512.0
2018-Feb-13 09:00N 34°42' E 134°30'2012.9
2018-Feb-13 07:27N 34°33' E 134°09'  

Dump ship's entire track history